sensor_id;sensor_type;location;lat;lon;timestamp;P1;durP1;ratioP1;P2;durP2;ratioP2
7485;SDS011;3784;54.098;9.998;2023-06-22T00:01:13;395.73;;;378.87;;
7485;SDS011;3784;54.098;9.998;2023-06-22T00:03:40;405.60;;;388.37;;
7485;SDS011;3784;54.098;9.998;2023-06-22T00:06:07;404.40;;;387.10;;
7485;SDS011;3784;54.098;9.998;2023-06-22T00:08:33;392.63;;;375.70;;
7485;SDS011;3784;54.098;9.998;2023-06-22T00:10:59;360.27;;;345.00;;
7485;SDS011;3784;54.098;9.998;2023-06-22T00:13:26;399.23;;;382.27;;
7485;SDS011;3784;54.098;9.998;2023-06-22T00:15:52;404.57;;;386.80;;
7485;SDS011;3784;54.098;9.998;2023-06-22T00:18:19;374.60;;;358.77;;
7485;SDS011;3784;54.098;9.998;2023-06-22T00:20:46;372.10;;;356.33;;
7485;SDS011;3784;54.098;9.998;2023-06-22T00:23:12;390.63;;;374.00;;
7485;SDS011;3784;54.098;9.998;2023-06-22T00:25:42;384.00;;;367.57;;
7485;SDS011;3784;54.098;9.998;2023-06-22T00:28:08;383.00;;;366.80;;
7485;SDS011;3784;54.098;9.998;2023-06-22T00:30:35;383.20;;;366.93;;
7485;SDS011;3784;54.098;9.998;2023-06-22T00:33:01;355.60;;;340.67;;
7485;SDS011;3784;54.098;9.998;2023-06-22T00:35:28;365.57;;;350.13;;
7485;SDS011;3784;54.098;9.998;2023-06-22T00:37:58;348.70;;;333.97;;
7485;SDS011;3784;54.098;9.998;2023-06-22T00:40:28;345.80;;;331.30;;
7485;SDS011;3784;54.098;9.998;2023-06-22T00:42:58;344.07;;;329.50;;
7485;SDS011;3784;54.098;9.998;2023-06-22T00:45:25;341.53;;;327.30;;
7485;SDS011;3784;54.098;9.998;2023-06-22T00:47:52;328.23;;;314.70;;
7485;SDS011;3784;54.098;9.998;2023-06-22T00:50:20;319.57;;;306.27;;
7485;SDS011;3784;54.098;9.998;2023-06-22T00:52:49;340.87;;;326.63;;
7485;SDS011;3784;54.098;9.998;2023-06-22T00:55:18;338.43;;;324.30;;
7485;SDS011;3784;54.098;9.998;2023-06-22T00:57:46;356.93;;;341.97;;
7485;SDS011;3784;54.098;9.998;2023-06-22T01:00:14;340.80;;;326.77;;
7485;SDS011;3784;54.098;9.998;2023-06-22T01:02:46;343.97;;;329.80;;
7485;SDS011;3784;54.098;9.998;2023-06-22T01:05:13;323.33;;;310.13;;
7485;SDS011;3784;54.098;9.998;2023-06-22T01:10:35;334.10;;;320.07;;
7485;SDS011;3784;54.098;9.998;2023-06-22T01:13:10;349.60;;;334.83;;
7485;SDS011;3784;54.098;9.998;2023-06-22T01:18:29;358.27;;;343.23;;
7485;SDS011;3784;54.098;9.998;2023-06-22T01:20:57;365.40;;;350.27;;
7485;SDS011;3784;54.098;9.998;2023-06-22T01:23:41;362.17;;;346.93;;
7485;SDS011;3784;54.098;9.998;2023-06-22T01:26:20;344.63;;;330.37;;
7485;SDS011;3784;54.098;9.998;2023-06-22T01:28:54;351.57;;;336.93;;
7485;SDS011;3784;54.098;9.998;2023-06-22T01:31:23;356.97;;;342.00;;
7485;SDS011;3784;54.098;9.998;2023-06-22T01:33:55;351.23;;;336.57;;
7485;SDS011;3784;54.098;9.998;2023-06-22T01:36:24;343.27;;;328.83;;
7485;SDS011;3784;54.098;9.998;2023-06-22T01:38:51;336.70;;;322.83;;
7485;SDS011;3784;54.098;9.998;2023-06-22T01:41:19;337.43;;;323.63;;
7485;SDS011;3784;54.098;9.998;2023-06-22T01:43:46;334.13;;;319.73;;
7485;SDS011;3784;54.098;9.998;2023-06-22T01:46:13;336.27;;;322.33;;
7485;SDS011;3784;54.098;9.998;2023-06-22T01:48:40;313.27;;;300.17;;
7485;SDS011;3784;54.098;9.998;2023-06-22T01:51:07;297.13;;;284.80;;
7485;SDS011;3784;54.098;9.998;2023-06-22T01:53:33;292.23;;;280.10;;
7485;SDS011;3784;54.098;9.998;2023-06-22T01:56:00;291.63;;;279.47;;
7485;SDS011;3784;54.098;9.998;2023-06-22T01:58:27;242.57;;;232.23;;
7485;SDS011;3784;54.098;9.998;2023-06-22T02:01:00;198.33;;;189.73;;
7485;SDS011;3784;54.098;9.998;2023-06-22T02:03:34;169.77;;;162.20;;
7485;SDS011;3784;54.098;9.998;2023-06-22T02:06:07;134.63;;;128.50;;
7485;SDS011;3784;54.098;9.998;2023-06-22T02:08:46;129.20;;;123.50;;
7485;SDS011;3784;54.098;9.998;2023-06-22T02:11:14;174.53;;;166.83;;
7485;SDS011;3784;54.098;9.998;2023-06-22T02:13:41;127.97;;;122.10;;
7485;SDS011;3784;54.098;9.998;2023-06-22T02:16:10;79.67;;;75.63;;
7485;SDS011;3784;54.098;9.998;2023-06-22T02:18:37;58.07;;;54.97;;
7485;SDS011;3784;54.098;9.998;2023-06-22T02:21:03;46.87;;;44.17;;
7485;SDS011;3784;54.098;9.998;2023-06-22T02:23:30;40.70;;;38.57;;
7485;SDS011;3784;54.098;9.998;2023-06-22T02:25:56;36.13;;;34.17;;
7485;SDS011;3784;54.098;9.998;2023-06-22T02:28:22;35.27;;;33.27;;
7485;SDS011;3784;54.098;9.998;2023-06-22T02:30:49;33.23;;;31.17;;
7485;SDS011;3784;54.098;9.998;2023-06-22T02:33:15;29.27;;;27.30;;
7485;SDS011;3784;54.098;9.998;2023-06-22T02:35:42;29.73;;;27.73;;
7485;SDS011;3784;54.098;9.998;2023-06-22T02:38:11;28.13;;;26.43;;
7485;SDS011;3784;54.098;9.998;2023-06-22T02:40:38;29.73;;;27.73;;
7485;SDS011;3784;54.098;9.998;2023-06-22T02:43:04;28.40;;;26.40;;
7485;SDS011;3784;54.098;9.998;2023-06-22T02:45:31;30.00;;;28.13;;
7485;SDS011;3784;54.098;9.998;2023-06-22T02:47:57;29.90;;;27.80;;
7485;SDS011;3784;54.098;9.998;2023-06-22T02:50:24;32.53;;;30.40;;
7485;SDS011;3784;54.098;9.998;2023-06-22T02:52:51;26.33;;;24.67;;
7485;SDS011;3784;54.098;9.998;2023-06-22T02:55:17;26.13;;;24.43;;
7485;SDS011;3784;54.098;9.998;2023-06-22T02:57:43;27.50;;;25.73;;
7485;SDS011;3784;54.098;9.998;2023-06-22T03:00:10;29.87;;;27.87;;
7485;SDS011;3784;54.098;9.998;2023-06-22T03:02:46;27.00;;;25.30;;
7485;SDS011;3784;54.098;9.998;2023-06-22T03:05:14;28.07;;;26.27;;
7485;SDS011;3784;54.098;9.998;2023-06-22T03:07:41;29.33;;;27.33;;
7485;SDS011;3784;54.098;9.998;2023-06-22T03:10:11;32.33;;;30.23;;
7485;SDS011;3784;54.098;9.998;2023-06-22T03:12:39;29.47;;;27.47;;
7485;SDS011;3784;54.098;9.998;2023-06-22T03:15:07;30.60;;;28.70;;
7485;SDS011;3784;54.098;9.998;2023-06-22T03:17:34;29.83;;;27.97;;
7485;SDS011;3784;54.098;9.998;2023-06-22T03:20:02;37.80;;;35.37;;
7485;SDS011;3784;54.098;9.998;2023-06-22T03:22:36;33.13;;;30.90;;
7485;SDS011;3784;54.098;9.998;2023-06-22T03:25:03;34.87;;;32.57;;
7485;SDS011;3784;54.098;9.998;2023-06-22T03:27:29;35.63;;;33.23;;
7485;SDS011;3784;54.098;9.998;2023-06-22T03:29:56;35.07;;;32.83;;
7485;SDS011;3784;54.098;9.998;2023-06-22T03:32:23;34.03;;;31.73;;
7485;SDS011;3784;54.098;9.998;2023-06-22T03:34:50;35.47;;;33.13;;
7485;SDS011;3784;54.098;9.998;2023-06-22T03:37:16;33.43;;;31.33;;
7485;SDS011;3784;54.098;9.998;2023-06-22T03:39:43;30.87;;;28.87;;
7485;SDS011;3784;54.098;9.998;2023-06-22T03:42:10;28.70;;;26.80;;
7485;SDS011;3784;54.098;9.998;2023-06-22T03:44:36;25.13;;;23.43;;
7485;SDS011;3784;54.098;9.998;2023-06-22T03:47:03;27.67;;;25.90;;
7485;SDS011;3784;54.098;9.998;2023-06-22T03:49:30;28.40;;;26.57;;
7485;SDS011;3784;54.098;9.998;2023-06-22T03:51:56;29.23;;;27.33;;
7485;SDS011;3784;54.098;9.998;2023-06-22T03:54:23;26.83;;;25.03;;
7485;SDS011;3784;54.098;9.998;2023-06-22T03:56:49;29.17;;;27.37;;
7485;SDS011;3784;54.098;9.998;2023-06-22T03:59:15;27.43;;;25.73;;
7485;SDS011;3784;54.098;9.998;2023-06-22T04:01:42;23.30;;;21.83;;
7485;SDS011;3784;54.098;9.998;2023-06-22T04:04:09;26.10;;;24.40;;
7485;SDS011;3784;54.098;9.998;2023-06-22T04:06:35;25.80;;;24.20;;
7485;SDS011;3784;54.098;9.998;2023-06-22T04:09:01;26.43;;;24.67;;
7485;SDS011;3784;54.098;9.998;2023-06-22T04:11:28;26.30;;;24.63;;
7485;SDS011;3784;54.098;9.998;2023-06-22T04:13:55;28.20;;;26.30;;
7485;SDS011;3784;54.098;9.998;2023-06-22T04:16:21;31.97;;;30.03;;
7485;SDS011;3784;54.098;9.998;2023-06-22T04:18:48;29.57;;;27.53;;
7485;SDS011;3784;54.098;9.998;2023-06-22T04:21:14;38.13;;;36.10;;
7485;SDS011;3784;54.098;9.998;2023-06-22T04:23:41;44.27;;;41.93;;
7485;SDS011;3784;54.098;9.998;2023-06-22T04:26:07;51.57;;;48.90;;
7485;SDS011;3784;54.098;9.998;2023-06-22T04:28:33;77.30;;;73.47;;
7485;SDS011;3784;54.098;9.998;2023-06-22T04:31:01;78.73;;;74.77;;
7485;SDS011;3784;54.098;9.998;2023-06-22T04:33:29;74.27;;;70.53;;
7485;SDS011;3784;54.098;9.998;2023-06-22T04:35:55;84.60;;;80.47;;
7485;SDS011;3784;54.098;9.998;2023-06-22T04:38:27;90.57;;;86.27;;
7485;SDS011;3784;54.098;9.998;2023-06-22T04:40:53;108.47;;;103.37;;
7485;SDS011;3784;54.098;9.998;2023-06-22T04:43:20;111.73;;;106.60;;
7485;SDS011;3784;54.098;9.998;2023-06-22T04:45:46;125.37;;;119.47;;
7485;SDS011;3784;54.098;9.998;2023-06-22T04:48:18;132.67;;;126.60;;
7485;SDS011;3784;54.098;9.998;2023-06-22T04:50:45;134.40;;;128.30;;
7485;SDS011;3784;54.098;9.998;2023-06-22T04:53:11;135.90;;;129.67;;
7485;SDS011;3784;54.098;9.998;2023-06-22T04:55:39;134.50;;;128.33;;
7485;SDS011;3784;54.098;9.998;2023-06-22T04:58:11;168.03;;;160.30;;
7485;SDS011;3784;54.098;9.998;2023-06-22T05:00:39;151.83;;;144.90;;
7485;SDS011;3784;54.098;9.998;2023-06-22T05:03:05;142.77;;;136.30;;
7485;SDS011;3784;54.098;9.998;2023-06-22T05:05:43;153.77;;;147.03;;
7485;SDS011;3784;54.098;9.998;2023-06-22T05:08:10;144.10;;;137.43;;
7485;SDS011;3784;54.098;9.998;2023-06-22T05:10:36;154.83;;;147.83;;
7485;SDS011;3784;54.098;9.998;2023-06-22T05:13:10;169.87;;;162.23;;
7485;SDS011;3784;54.098;9.998;2023-06-22T05:15:37;168.00;;;160.43;;
7485;SDS011;3784;54.098;9.998;2023-06-22T05:18:06;176.60;;;168.60;;
7485;SDS011;3784;54.098;9.998;2023-06-22T05:20:32;169.67;;;162.20;;
7485;SDS011;3784;54.098;9.998;2023-06-22T05:23:02;189.07;;;180.73;;
7485;SDS011;3784;54.098;9.998;2023-06-22T05:25:28;186.00;;;177.80;;
7485;SDS011;3784;54.098;9.998;2023-06-22T05:27:56;194.23;;;185.83;;
7485;SDS011;3784;54.098;9.998;2023-06-22T05:30:22;184.17;;;176.13;;
7485;SDS011;3784;54.098;9.998;2023-06-22T05:32:49;180.50;;;172.53;;
7485;SDS011;3784;54.098;9.998;2023-06-22T05:35:15;184.17;;;176.17;;
7485;SDS011;3784;54.098;9.998;2023-06-22T05:37:42;200.97;;;192.47;;
7485;SDS011;3784;54.098;9.998;2023-06-22T05:40:09;197.10;;;188.80;;
7485;SDS011;3784;54.098;9.998;2023-06-22T05:42:35;197.43;;;189.17;;
7485;SDS011;3784;54.098;9.998;2023-06-22T05:45:02;201.50;;;192.93;;
7485;SDS011;3784;54.098;9.998;2023-06-22T05:47:29;207.23;;;198.43;;
7485;SDS011;3784;54.098;9.998;2023-06-22T05:49:55;215.53;;;206.37;;
7485;SDS011;3784;54.098;9.998;2023-06-22T05:52:22;209.47;;;200.53;;
7485;SDS011;3784;54.098;9.998;2023-06-22T05:54:48;231.53;;;221.80;;
7485;SDS011;3784;54.098;9.998;2023-06-22T05:57:14;195.93;;;187.77;;
7485;SDS011;3784;54.098;9.998;2023-06-22T05:59:41;203.80;;;195.27;;
7485;SDS011;3784;54.098;9.998;2023-06-22T06:02:07;211.50;;;202.50;;
7485;SDS011;3784;54.098;9.998;2023-06-22T06:04:34;220.10;;;210.80;;
7485;SDS011;3784;54.098;9.998;2023-06-22T06:07:00;214.40;;;205.23;;
7485;SDS011;3784;54.098;9.998;2023-06-22T06:09:27;244.57;;;234.20;;
7485;SDS011;3784;54.098;9.998;2023-06-22T06:11:53;222.17;;;212.83;;
7485;SDS011;3784;54.098;9.998;2023-06-22T06:14:20;241.67;;;231.53;;
7485;SDS011;3784;54.098;9.998;2023-06-22T06:16:47;275.67;;;263.73;;
7485;SDS011;3784;54.098;9.998;2023-06-22T06:19:14;254.57;;;243.77;;
7485;SDS011;3784;54.098;9.998;2023-06-22T06:21:41;234.73;;;224.90;;
7485;SDS011;3784;54.098;9.998;2023-06-22T06:24:07;254.73;;;244.30;;
7485;SDS011;3784;54.098;9.998;2023-06-22T06:26:33;312.43;;;299.43;;
7485;SDS011;3784;54.098;9.998;2023-06-22T06:29:01;268.47;;;257.37;;
7485;SDS011;3784;54.098;9.998;2023-06-22T06:31:28;293.90;;;281.67;;
7485;SDS011;3784;54.098;9.998;2023-06-22T06:33:55;278.93;;;267.33;;
7485;SDS011;3784;54.098;9.998;2023-06-22T06:36:21;282.17;;;270.27;;
7485;SDS011;3784;54.098;9.998;2023-06-22T06:38:48;304.67;;;291.87;;
7485;SDS011;3784;54.098;9.998;2023-06-22T06:41:15;297.43;;;285.17;;
7485;SDS011;3784;54.098;9.998;2023-06-22T06:43:42;302.50;;;289.83;;
7485;SDS011;3784;54.098;9.998;2023-06-22T06:46:11;279.70;;;268.20;;
7485;SDS011;3784;54.098;9.998;2023-06-22T06:48:37;297.77;;;285.57;;
7485;SDS011;3784;54.098;9.998;2023-06-22T06:51:04;307.53;;;294.87;;
7485;SDS011;3784;54.098;9.998;2023-06-22T06:53:30;270.97;;;259.77;;
7485;SDS011;3784;54.098;9.998;2023-06-22T06:55:57;261.23;;;250.33;;
7485;SDS011;3784;54.098;9.998;2023-06-22T06:58:23;264.03;;;253.03;;
7485;SDS011;3784;54.098;9.998;2023-06-22T07:00:49;278.13;;;266.70;;
7485;SDS011;3784;54.098;9.998;2023-06-22T07:03:16;262.23;;;251.47;;
7485;SDS011;3784;54.098;9.998;2023-06-22T07:05:42;297.70;;;285.23;;
7485;SDS011;3784;54.098;9.998;2023-06-22T07:08:09;262.47;;;251.57;;
7485;SDS011;3784;54.098;9.998;2023-06-22T07:10:35;261.83;;;250.90;;
7485;SDS011;3784;54.098;9.998;2023-06-22T07:13:02;279.17;;;267.53;;
7485;SDS011;3784;54.098;9.998;2023-06-22T07:15:28;265.43;;;254.33;;
7485;SDS011;3784;54.098;9.998;2023-06-22T07:17:54;225.17;;;215.93;;
7485;SDS011;3784;54.098;9.998;2023-06-22T07:20:21;261.47;;;250.67;;
7485;SDS011;3784;54.098;9.998;2023-06-22T07:22:47;278.53;;;267.03;;
7485;SDS011;3784;54.098;9.998;2023-06-22T07:25:14;265.20;;;254.17;;
7485;SDS011;3784;54.098;9.998;2023-06-22T07:27:45;329.07;;;315.30;;
7485;SDS011;3784;54.098;9.998;2023-06-22T07:30:14;264.07;;;253.10;;
7485;SDS011;3784;54.098;9.998;2023-06-22T07:32:40;320.77;;;307.47;;
7485;SDS011;3784;54.098;9.998;2023-06-22T07:35:07;427.73;;;408.70;;
7485;SDS011;3784;54.098;9.998;2023-06-22T07:37:34;352.53;;;337.43;;
7485;SDS011;3784;54.098;9.998;2023-06-22T07:40:01;240.43;;;230.60;;
7485;SDS011;3784;54.098;9.998;2023-06-22T07:42:30;420.70;;;401.60;;
7485;SDS011;3784;54.098;9.998;2023-06-22T07:44:59;268.33;;;256.50;;
7485;SDS011;3784;54.098;9.998;2023-06-22T07:47:25;516.37;;;491.87;;
7485;SDS011;3784;54.098;9.998;2023-06-22T07:49:54;404.17;;;385.77;;
7485;SDS011;3784;54.098;9.998;2023-06-22T07:52:24;419.20;;;400.33;;
7485;SDS011;3784;54.098;9.998;2023-06-22T07:54:51;305.23;;;292.33;;
7485;SDS011;3784;54.098;9.998;2023-06-22T07:57:18;512.43;;;488.20;;
7485;SDS011;3784;54.098;9.998;2023-06-22T07:59:44;534.43;;;509.07;;
7485;SDS011;3784;54.098;9.998;2023-06-22T08:02:11;542.07;;;516.43;;
7485;SDS011;3784;54.098;9.998;2023-06-22T08:04:38;552.83;;;526.93;;
7485;SDS011;3784;54.098;9.998;2023-06-22T08:07:05;536.60;;;511.53;;
7485;SDS011;3784;54.098;9.998;2023-06-22T08:09:32;539.03;;;512.70;;
7485;SDS011;3784;54.098;9.998;2023-06-22T08:11:59;472.20;;;450.13;;
7485;SDS011;3784;54.098;9.998;2023-06-22T08:14:26;563.97;;;537.30;;
7485;SDS011;3784;54.098;9.998;2023-06-22T08:16:53;530.47;;;505.50;;
7485;SDS011;3784;54.098;9.998;2023-06-22T08:19:19;524.70;;;500.20;;
7485;SDS011;3784;54.098;9.998;2023-06-22T08:21:45;526.50;;;502.20;;
7485;SDS011;3784;54.098;9.998;2023-06-22T08:24:12;487.07;;;464.73;;
7485;SDS011;3784;54.098;9.998;2023-06-22T08:26:39;496.67;;;473.70;;
7485;SDS011;3784;54.098;9.998;2023-06-22T08:29:05;523.20;;;499.00;;
7485;SDS011;3784;54.098;9.998;2023-06-22T08:31:31;531.77;;;506.93;;
7485;SDS011;3784;54.098;9.998;2023-06-22T08:34:01;476.93;;;454.97;;
7485;SDS011;3784;54.098;9.998;2023-06-22T08:36:27;516.87;;;492.67;;
7485;SDS011;3784;54.098;9.998;2023-06-22T08:38:59;528.87;;;503.97;;
7485;SDS011;3784;54.098;9.998;2023-06-22T08:41:27;535.97;;;510.37;;
7485;SDS011;3784;54.098;9.998;2023-06-22T08:43:54;534.17;;;509.10;;
7485;SDS011;3784;54.098;9.998;2023-06-22T08:46:20;499.33;;;476.43;;
7485;SDS011;3784;54.098;9.998;2023-06-22T08:48:49;556.17;;;529.20;;
7485;SDS011;3784;54.098;9.998;2023-06-22T08:51:16;570.10;;;542.03;;
7485;SDS011;3784;54.098;9.998;2023-06-22T08:53:43;347.43;;;332.47;;
7485;SDS011;3784;54.098;9.998;2023-06-22T08:56:11;555.90;;;529.33;;
7485;SDS011;3784;54.098;9.998;2023-06-22T08:58:37;431.23;;;411.83;;
7485;SDS011;3784;54.098;9.998;2023-06-22T09:01:04;542.63;;;517.10;;
7485;SDS011;3784;54.098;9.998;2023-06-22T09:03:30;559.13;;;532.47;;
7485;SDS011;3784;54.098;9.998;2023-06-22T09:05:59;460.77;;;439.73;;
7485;SDS011;3784;54.098;9.998;2023-06-22T09:08:25;504.47;;;480.83;;
7485;SDS011;3784;54.098;9.998;2023-06-22T09:10:52;438.70;;;419.27;;
7485;SDS011;3784;54.098;9.998;2023-06-22T09:13:18;486.90;;;464.40;;
7485;SDS011;3784;54.098;9.998;2023-06-22T09:15:45;560.20;;;533.50;;
7485;SDS011;3784;54.098;9.998;2023-06-22T09:18:11;575.33;;;547.33;;
7485;SDS011;3784;54.098;9.998;2023-06-22T09:20:38;529.03;;;504.27;;
7485;SDS011;3784;54.098;9.998;2023-06-22T09:23:04;415.67;;;396.40;;
7485;SDS011;3784;54.098;9.998;2023-06-22T09:25:30;373.87;;;357.63;;
7485;SDS011;3784;54.098;9.998;2023-06-22T09:27:57;463.30;;;442.57;;
7485;SDS011;3784;54.098;9.998;2023-06-22T09:30:24;362.47;;;346.87;;
7485;SDS011;3784;54.098;9.998;2023-06-22T09:32:50;479.47;;;457.47;;
7485;SDS011;3784;54.098;9.998;2023-06-22T09:35:17;553.57;;;525.97;;
7485;SDS011;3784;54.098;9.998;2023-06-22T09:37:43;454.07;;;433.07;;
7485;SDS011;3784;54.098;9.998;2023-06-22T09:40:11;363.03;;;347.57;;
7485;SDS011;3784;54.098;9.998;2023-06-22T09:42:41;440.60;;;420.97;;
7485;SDS011;3784;54.098;9.998;2023-06-22T09:45:07;379.30;;;362.83;;
7485;SDS011;3784;54.098;9.998;2023-06-22T09:47:34;458.33;;;437.90;;
7485;SDS011;3784;54.098;9.998;2023-06-22T09:50:01;403.63;;;386.00;;
7485;SDS011;3784;54.098;9.998;2023-06-22T09:52:27;468.33;;;447.37;;
7485;SDS011;3784;54.098;9.998;2023-06-22T09:55:12;497.13;;;474.67;;
7485;SDS011;3784;54.098;9.998;2023-06-22T09:57:39;369.10;;;353.23;;
7485;SDS011;3784;54.098;9.998;2023-06-22T10:00:05;396.57;;;379.17;;
7485;SDS011;3784;54.098;9.998;2023-06-22T10:02:35;461.70;;;440.03;;
7485;SDS011;3784;54.098;9.998;2023-06-22T10:05:01;420.03;;;401.20;;
7485;SDS011;3784;54.098;9.998;2023-06-22T10:07:28;468.97;;;447.53;;
7485;SDS011;3784;54.098;9.998;2023-06-22T10:09:55;489.30;;;467.10;;
7485;SDS011;3784;54.098;9.998;2023-06-22T10:12:21;520.33;;;496.17;;
7485;SDS011;3784;54.098;9.998;2023-06-22T10:14:47;536.77;;;512.03;;
7485;SDS011;3784;54.098;9.998;2023-06-22T10:17:14;528.23;;;503.87;;
7485;SDS011;3784;54.098;9.998;2023-06-22T10:19:41;474.60;;;453.57;;
7485;SDS011;3784;54.098;9.998;2023-06-22T10:22:07;506.73;;;483.23;;
7485;SDS011;3784;54.098;9.998;2023-06-22T10:24:34;424.73;;;405.73;;
7485;SDS011;3784;54.098;9.998;2023-06-22T10:27:00;383.50;;;366.30;;
7485;SDS011;3784;54.098;9.998;2023-06-22T10:29:26;511.27;;;486.53;;
7485;SDS011;3784;54.098;9.998;2023-06-22T10:31:53;487.47;;;465.30;;
7485;SDS011;3784;54.098;9.998;2023-06-22T10:34:19;544.63;;;518.67;;
7485;SDS011;3784;54.098;9.998;2023-06-22T10:36:46;514.13;;;490.60;;
7485;SDS011;3784;54.098;9.998;2023-06-22T10:39:14;479.60;;;457.93;;
7485;SDS011;3784;54.098;9.998;2023-06-22T10:41:41;449.90;;;429.17;;
7485;SDS011;3784;54.098;9.998;2023-06-22T10:44:08;445.77;;;425.30;;
7485;SDS011;3784;54.098;9.998;2023-06-22T10:46:35;506.97;;;483.40;;
7485;SDS011;3784;54.098;9.998;2023-06-22T10:49:06;530.20;;;505.20;;
7485;SDS011;3784;54.098;9.998;2023-06-22T10:51:33;547.77;;;521.87;;
7485;SDS011;3784;54.098;9.998;2023-06-22T10:53:59;521.93;;;497.07;;
7485;SDS011;3784;54.098;9.998;2023-06-22T10:56:26;543.23;;;517.70;;
7485;SDS011;3784;54.098;9.998;2023-06-22T10:58:52;497.73;;;474.73;;
7485;SDS011;3784;54.098;9.998;2023-06-22T11:01:20;561.77;;;534.97;;
7485;SDS011;3784;54.098;9.998;2023-06-22T11:06:49;573.23;;;545.93;;
7485;SDS011;3784;54.098;9.998;2023-06-22T11:09:15;466.83;;;445.37;;
7485;SDS011;3784;54.098;9.998;2023-06-22T11:11:53;538.30;;;513.07;;
7485;SDS011;3784;54.098;9.998;2023-06-22T11:14:21;489.50;;;466.77;;
7485;SDS011;3784;54.098;9.998;2023-06-22T11:16:48;562.97;;;535.87;;
7485;SDS011;3784;54.098;9.998;2023-06-22T11:19:15;504.47;;;481.50;;
7485;SDS011;3784;54.098;9.998;2023-06-22T11:21:42;561.03;;;534.23;;
7485;SDS011;3784;54.098;9.998;2023-06-22T11:24:08;383.17;;;366.67;;
7485;SDS011;3784;54.098;9.998;2023-06-22T11:26:34;493.43;;;470.93;;
7485;SDS011;3784;54.098;9.998;2023-06-22T11:29:01;524.73;;;500.30;;
7485;SDS011;3784;54.098;9.998;2023-06-22T11:31:34;585.37;;;557.37;;
7485;SDS011;3784;54.098;9.998;2023-06-22T11:34:01;569.23;;;541.53;;
7485;SDS011;3784;54.098;9.998;2023-06-22T11:36:30;535.13;;;509.43;;
7485;SDS011;3784;54.098;9.998;2023-06-22T11:38:59;549.33;;;522.97;;
7485;SDS011;3784;54.098;9.998;2023-06-22T11:41:26;480.23;;;457.47;;
7485;SDS011;3784;54.098;9.998;2023-06-22T11:43:52;569.33;;;541.83;;
7485;SDS011;3784;54.098;9.998;2023-06-22T11:51:28;535.00;;;507.93;;
7485;SDS011;3784;54.098;9.998;2023-06-22T11:53:57;393.97;;;376.77;;
7485;SDS011;3784;54.098;9.998;2023-06-22T11:56:24;608.10;;;574.87;;
7485;SDS011;3784;54.098;9.998;2023-06-22T11:58:51;523.97;;;499.57;;
7485;SDS011;3784;54.098;9.998;2023-06-22T12:01:17;489.60;;;466.73;;
7485;SDS011;3784;54.098;9.998;2023-06-22T12:03:44;481.73;;;459.43;;
7485;SDS011;3784;54.098;9.998;2023-06-22T12:06:10;486.20;;;464.23;;
7485;SDS011;3784;54.098;9.998;2023-06-22T12:08:37;524.10;;;497.37;;
7485;SDS011;3784;54.098;9.998;2023-06-22T12:11:05;455.03;;;434.20;;
7485;SDS011;3784;54.098;9.998;2023-06-22T12:13:31;358.67;;;343.43;;
7485;SDS011;3784;54.098;9.998;2023-06-22T12:15:57;424.83;;;406.23;;
7485;SDS011;3784;54.098;9.998;2023-06-22T12:18:24;355.90;;;340.70;;
7485;SDS011;3784;54.098;9.998;2023-06-22T12:20:50;398.37;;;381.03;;
7485;SDS011;3784;54.098;9.998;2023-06-22T12:23:17;395.97;;;378.67;;
7485;SDS011;3784;54.098;9.998;2023-06-22T12:25:44;361.97;;;346.10;;
7485;SDS011;3784;54.098;9.998;2023-06-22T12:28:11;461.90;;;441.27;;
7485;SDS011;3784;54.098;9.998;2023-06-22T12:30:37;503.27;;;480.80;;
7485;SDS011;3784;54.098;9.998;2023-06-22T12:33:04;481.90;;;459.93;;
7485;SDS011;3784;54.098;9.998;2023-06-22T12:35:37;480.33;;;458.43;;
7485;SDS011;3784;54.098;9.998;2023-06-22T12:38:04;490.53;;;467.70;;
7485;SDS011;3784;54.098;9.998;2023-06-22T12:40:35;499.33;;;476.47;;
7485;SDS011;3784;54.098;9.998;2023-06-22T12:43:02;499.13;;;474.70;;
7485;SDS011;3784;54.098;9.998;2023-06-22T12:45:28;455.77;;;434.77;;
7485;SDS011;3784;54.098;9.998;2023-06-22T12:47:57;429.00;;;409.90;;
7485;SDS011;3784;54.098;9.998;2023-06-22T12:50:24;396.90;;;379.27;;
7485;SDS011;3784;54.098;9.998;2023-06-22T12:52:50;509.73;;;486.33;;
7485;SDS011;3784;54.098;9.998;2023-06-22T12:55:17;465.43;;;444.43;;
7485;SDS011;3784;54.098;9.998;2023-06-22T12:57:43;396.63;;;379.23;;
7485;SDS011;3784;54.098;9.998;2023-06-22T13:00:10;533.23;;;508.37;;
7485;SDS011;3784;54.098;9.998;2023-06-22T13:02:37;483.87;;;461.10;;
7485;SDS011;3784;54.098;9.998;2023-06-22T13:05:24;525.83;;;501.43;;
7485;SDS011;3784;54.098;9.998;2023-06-22T13:07:51;438.93;;;419.20;;
7485;SDS011;3784;54.098;9.998;2023-06-22T13:10:17;495.47;;;471.03;;
7485;SDS011;3784;54.098;9.998;2023-06-22T13:12:44;432.87;;;413.07;;
7485;SDS011;3784;54.098;9.998;2023-06-22T13:15:25;382.87;;;365.97;;
7485;SDS011;3784;54.098;9.998;2023-06-22T13:18:08;490.93;;;467.97;;
7485;SDS011;3784;54.098;9.998;2023-06-22T13:20:35;392.53;;;375.20;;
7485;SDS011;3784;54.098;9.998;2023-06-22T13:23:01;487.97;;;464.17;;
7485;SDS011;3784;54.098;9.998;2023-06-22T13:25:28;507.57;;;484.43;;
7485;SDS011;3784;54.098;9.998;2023-06-22T13:27:54;482.77;;;460.43;;
7485;SDS011;3784;54.098;9.998;2023-06-22T13:30:21;460.53;;;439.77;;
7485;SDS011;3784;54.098;9.998;2023-06-22T13:32:47;437.77;;;417.77;;
7485;SDS011;3784;54.098;9.998;2023-06-22T13:35:14;555.00;;;526.27;;
7485;SDS011;3784;54.098;9.998;2023-06-22T13:37:40;439.80;;;420.07;;
7485;SDS011;3784;54.098;9.998;2023-06-22T13:40:07;462.23;;;441.63;;
7485;SDS011;3784;54.098;9.998;2023-06-22T13:42:34;503.30;;;480.47;;
7485;SDS011;3784;54.098;9.998;2023-06-22T13:45:01;364.67;;;349.00;;
7485;SDS011;3784;54.098;9.998;2023-06-22T13:47:28;491.63;;;469.30;;
7485;SDS011;3784;54.098;9.998;2023-06-22T13:49:56;343.80;;;329.20;;
7485;SDS011;3784;54.098;9.998;2023-06-22T13:52:24;435.03;;;415.93;;
7485;SDS011;3784;54.098;9.998;2023-06-22T13:54:51;451.30;;;431.13;;
7485;SDS011;3784;54.098;9.998;2023-06-22T13:57:17;496.17;;;473.43;;
7485;SDS011;3784;54.098;9.998;2023-06-22T13:59:43;478.53;;;457.10;;
7485;SDS011;3784;54.098;9.998;2023-06-22T14:02:10;438.23;;;418.57;;
7485;SDS011;3784;54.098;9.998;2023-06-22T14:04:36;499.67;;;476.87;;
7485;SDS011;3784;54.098;9.998;2023-06-22T14:07:02;504.40;;;481.17;;
7485;SDS011;3784;54.098;9.998;2023-06-22T14:09:29;514.27;;;490.67;;
7485;SDS011;3784;54.098;9.998;2023-06-22T14:11:55;512.40;;;489.13;;
7485;SDS011;3784;54.098;9.998;2023-06-22T14:14:22;498.40;;;475.60;;
7485;SDS011;3784;54.098;9.998;2023-06-22T14:16:48;458.43;;;438.00;;
7485;SDS011;3784;54.098;9.998;2023-06-22T14:19:19;631.90;;;597.20;;
7485;SDS011;3784;54.098;9.998;2023-06-22T14:21:45;653.50;;;615.73;;
7485;SDS011;3784;54.098;9.998;2023-06-22T14:24:11;643.00;;;605.00;;
7485;SDS011;3784;54.098;9.998;2023-06-22T14:26:38;505.40;;;480.43;;
7485;SDS011;3784;54.098;9.998;2023-06-22T14:29:04;472.37;;;451.07;;
7485;SDS011;3784;54.098;9.998;2023-06-22T14:31:31;455.10;;;434.57;;
7485;SDS011;3784;54.098;9.998;2023-06-22T14:33:57;483.43;;;461.30;;
7485;SDS011;3784;54.098;9.998;2023-06-22T14:36:24;407.27;;;389.77;;
7485;SDS011;3784;54.098;9.998;2023-06-22T14:38:50;456.70;;;436.47;;
7485;SDS011;3784;54.098;9.998;2023-06-22T14:41:16;472.87;;;450.97;;